Time;durP1;ratioP1;P1;durP2;ratioP2;P2;SDS_P1;SDS_P2;PMS_P1;PMS_P2;Temp;Humidity;BMP_temperature;BMP_pressure;BME280_temperature;BME280_humidity;BME280_pressure;Samples;Min_cycle;Max_cycle;Signal;HPM_P1;HPM_P2
2023/01/16 00:01:38;;;;;;;2.70;1.17;;;;;;;6.90;100.00;99357.41;5023570;28;20048;-74
2023/01/16 00:04:04;;;;;;;4.40;1.27;;;;;;;6.92;100.00;99366.03;5013716;28;20053;-75
2023/01/16 00:06:31;;;;;;;0.98;0.73;;;;;;;6.94;100.00;99355.41;5021865;28;20053;-75
2023/01/16 00:08:57;;;;;;;9.05;1.05;;;;;;;6.94;100.00;99349.13;5004008;28;20045;-74
2023/01/16 00:11:24;;;;;;;6.40;1.80;;;;;;;6.92;100.00;99349.53;5021452;28;20045;-76
2023/01/16 00:13:51;;;;;;;1.70;1.02;;;;;;;6.94;100.00;99341.66;5007070;28;20053;-75
2023/01/16 00:16:19;;;;;;;6.90;1.13;;;;;;;6.98;100.00;99331.41;5020814;28;20041;-75
2023/01/16 00:18:46;;;;;;;9.50;1.98;;;;;;;7.00;100.00;99339.25;5018589;28;20048;-75
2023/01/16 00:21:12;;;;;;;3.60;1.35;;;;;;;6.86;100.00;99322.88;5015981;28;20049;-75
2023/01/16 00:23:39;;;;;;;5.15;1.50;;;;;;;7.02;100.00;99312.91;5021547;28;20566;-75
2023/01/16 00:26:09;;;;;;;8.55;1.60;;;;;;;7.03;100.00;99308.19;5014004;28;20045;-76
2023/01/16 00:28:37;;;;;;;8.07;1.73;;;;;;;7.04;100.00;99301.50;5018753;28;20879;-76
2023/01/16 00:31:05;;;;;;;5.90;1.73;;;;;;;7.12;100.00;99303.78;5021672;28;20247;-75
2023/01/16 00:33:33;;;;;;;4.93;1.05;;;;;;;7.16;100.00;99309.25;5005203;28;20434;-75
2023/01/16 00:36:01;;;;;;;6.35;2.10;;;;;;;7.24;100.00;99316.25;5024091;28;20164;-75
2023/01/16 00:38:27;;;;;;;5.68;1.40;;;;;;;7.07;100.00;99293.22;5022804;28;20053;-75
2023/01/16 00:40:54;;;;;;;2.13;0.85;;;;;;;7.25;100.00;99299.31;5020549;28;20061;-77
2023/01/16 00:43:21;;;;;;;2.65;1.05;;;;;;;7.22;100.00;99291.88;5021445;28;20268;-77
2023/01/16 00:45:49;;;;;;;3.00;0.82;;;;;;;7.23;100.00;99296.19;5004270;28;20053;-77
2023/01/16 00:48:15;;;;;;;5.40;1.30;;;;;;;7.34;100.00;99277.63;5020449;28;20052;-77
2023/01/16 00:50:42;;;;;;;4.32;1.23;;;;;;;7.23;100.00;99285.19;5020609;28;20499;-76
2023/01/16 00:53:08;;;;;;;4.45;1.05;;;;;;;7.14;100.00;99276.66;5017908;28;20052;-74
2023/01/16 00:55:36;;;;;;;0.95;0.75;;;;;;;7.19;100.00;99272.69;5023798;28;20059;-76
2023/01/16 00:58:03;;;;;;;3.75;1.33;;;;;;;7.20;100.00;99280.53;5018346;28;20179;-75
2023/01/16 01:00:30;;;;;;;8.73;1.60;;;;;;;7.17;100.00;99275.06;5021933;28;20057;-75
2023/01/16 01:02:57;;;;;;;2.08;1.05;;;;;;;7.26;100.00;99269.84;5024397;28;20594;-74
2023/01/16 01:05:23;;;;;;;0.40;0.40;;;;;;;7.26;100.00;99264.34;5005422;28;20054;-77
2023/01/16 01:07:50;;;;;;;3.25;1.00;;;;;;;7.23;100.00;99265.94;5003844;28;20056;-75
2023/01/16 01:10:16;;;;;;;6.47;0.98;;;;;;;7.28;100.00;99259.22;5023907;28;20060;-75
2023/01/16 01:12:43;;;;;;;4.85;1.30;;;;;;;7.22;100.00;99260.84;5023041;28;20051;-75
2023/01/16 01:15:10;;;;;;;3.72;1.30;;;;;;;7.28;100.00;99246.25;5023288;28;20594;-76
2023/01/16 01:17:36;;;;;;;2.50;1.15;;;;;;;7.28;100.00;99246.25;5019388;28;20053;-74
2023/01/16 01:20:04;;;;;;;5.57;1.40;;;;;;;7.28;100.00;99242.69;5001683;28;20048;-74
2023/01/16 01:22:30;;;;;;;9.32;1.90;;;;;;;7.30;100.00;99243.84;5022043;28;20052;-74
2023/01/16 01:24:57;;;;;;;3.20;1.00;;;;;;;7.18;100.00;99244.38;5020901;28;20804;-74
2023/01/16 01:27:23;;;;;;;1.77;0.90;;;;;;;7.26;100.00;99231.34;5019776;28;20745;-75
2023/01/16 01:29:50;;;;;;;3.00;1.27;;;;;;;7.29;100.00;99230.53;5015752;28;20045;-77
2023/01/16 01:32:16;;;;;;;4.70;1.20;;;;;;;7.22;100.00;99233.34;5023670;28;20091;-73
2023/01/16 01:34:43;;;;;;;4.60;1.27;;;;;;;7.23;100.00;99221.91;5026864;28;20045;-75
2023/01/16 01:37:10;;;;;;;10.68;1.25;;;;;;;7.12;100.00;99226.00;5022009;28;20053;-75
2023/01/16 01:39:36;;;;;;;0.70;0.60;;;;;;;7.16;100.00;99219.25;5019808;28;20053;-75
2023/01/16 01:44:54;;;;;;;3.67;0.93;;;;;;;7.05;100.00;99209.56;5015277;28;20045;-77
2023/01/16 01:47:34;;;;;;;2.50;1.35;;;;;;;6.96;100.00;99201.03;5023146;28;20049;-75
2023/01/16 01:50:05;;;;;;;11.20;1.83;;;;;;;6.87;100.00;99197.97;5001600;28;20048;-75
2023/01/16 01:52:32;;;;;;;3.67;1.10;;;;;;;6.82;100.00;99188.19;5024138;28;20885;-75
2023/01/16 01:55:04;;;;;;;2.08;1.02;;;;;;;6.85;100.00;99200.38;5019366;28;20045;-75
2023/01/16 01:57:40;;;;;;;3.92;1.10;;;;;;;6.78;100.00;99192.97;5014850;28;20164;-75
2023/01/16 02:00:18;;;;;;;3.05;1.38;;;;;;;6.75;100.00;99190.25;5024556;28;20638;-75
2023/01/16 02:02:58;;;;;;;2.83;0.98;;;;;;;6.78;100.00;99176.47;5022834;28;20049;-78
2023/01/16 02:05:30;;;;;;;4.28;1.63;;;;;;;6.79;100.00;99180.75;5022025;28;20095;-75
2023/01/16 02:07:58;;;;;;;3.47;0.95;;;;;;;6.73;100.00;99171.44;5024813;28;20595;-75
2023/01/16 02:10:37;;;;;;;14.18;1.60;;;;;;;6.64;100.00;99162.09;5030322;28;20060;-75
2023/01/16 02:13:04;;;;;;;2.08;1.10;;;;;;;6.59;100.00;99168.81;5022884;28;20063;-75
2023/01/16 02:15:30;;;;;;;4.13;1.00;;;;;;;6.64;100.00;99167.59;5020293;28;20091;-76
2023/01/16 02:20:54;;;;;;;1.15;0.82;;;;;;;6.63;100.00;99160.53;5025104;28;20049;-75
2023/01/16 02:23:32;;;;;;;1.25;1.08;;;;;;;6.57;100.00;99148.41;5028476;28;20056;-75
2023/01/16 02:26:48;;;;;;;8.35;1.70;;;;;;;6.43;100.00;99123.84;5029243;28;20131;-76
2023/01/16 02:29:31;;;;;;;8.07;1.55;;;;;;;6.53;100.00;99131.97;5029464;28;20055;-75
2023/01/16 02:32:17;;;;;;;6.18;1.17;;;;;;;6.55;100.00;99142.56;5049668;28;20424;-74
2023/01/16 02:34:53;;;;;;;12.23;1.38;;;;;;;6.62;100.00;99120.50;5032909;28;20049;-74
2023/01/16 02:37:43;;;;;;;0.55;0.55;;;;;;;6.50;100.00;99123.75;5050021;28;20053;-74
2023/01/16 02:40:34;;;;;;;4.65;1.50;;;;;;;6.49;100.00;99116.72;5047838;28;20051;-75
2023/01/16 02:43:32;;;;;;;4.13;0.77;;;;;;;6.54;100.00;99108.00;5048440;28;20469;-74
2023/01/16 02:46:01;;;;;;;7.35;1.55;;;;;;;6.56;100.00;99089.94;5046435;28;20462;-75
2023/01/16 02:48:39;;;;;;;2.17;0.82;;;;;;;6.51;100.00;99092.38;5037437;28;20052;-75
2023/01/16 02:51:19;;;;;;;5.18;1.13;;;;;;;6.48;100.00;99087.69;5049624;28;20056;-74
2023/01/16 02:53:55;;;;;;;1.92;0.80;;;;;;;6.50;100.00;99077.84;5048732;28;20079;-74
2023/01/16 02:56:33;;;;;;;3.67;1.42;;;;;;;6.46;100.00;99070.81;5049270;28;20060;-74
2023/01/16 02:59:00;;;;;;;0.75;0.60;;;;;;;6.44;100.00;99064.94;5035782;28;20060;-74
2023/01/16 03:01:27;;;;;;;2.17;1.00;;;;;;;6.45;100.00;99066.53;5049547;28;20503;-75
2023/01/16 03:03:53;;;;;;;6.30;1.92;;;;;;;6.51;100.00;99051.16;5049063;28;20049;-75
2023/01/16 03:06:20;;;;;;;0.50;0.50;;;;;;;6.47;100.00;99048.44;5049240;28;20121;-74
2023/01/16 03:09:15;;;;;;;3.08;1.20;;;;;;;6.51;100.00;99046.44;5049490;28;20059;-75
2023/01/16 03:12:08;;;;;;;4.68;1.30;;;;;;;6.52;100.00;99049.97;5048546;28;20056;-74
2023/01/16 03:14:51;;;;;;;5.00;1.45;;;;;;;6.53;100.00;99035.81;5004062;28;20052;-75
2023/01/16 03:18:05;;;;;;;0.80;0.80;;;;;;;6.53;100.00;99035.03;5049192;28;20055;-75
2023/01/16 03:20:51;;;;;;;2.25;1.35;;;;;;;6.53;100.00;99024.03;5034652;28;20053;-74
2023/01/16 03:23:31;;;;;;;2.25;0.95;;;;;;;6.57;100.00;99019.28;5045177;28;20057;-75
2023/01/16 03:26:02;;;;;;;6.82;1.52;;;;;;;6.61;100.00;99025.53;5045248;28;20753;-75
2023/01/16 03:28:48;;;;;;;7.65;1.60;;;;;;;6.69;100.00;99018.75;5031795;28;20049;-74
2023/01/16 03:31:25;;;;;;;7.13;1.23;;;;;;;6.59;100.00;99012.19;5046636;28;20049;-75
2023/01/16 03:34:20;;;;;;;6.35;1.38;;;;;;;6.67;100.00;99004.63;5047423;28;20049;-75
2023/01/16 03:36:54;;;;;;;2.77;1.03;;;;;;;6.63;100.00;99001.94;5006987;28;20044;-74
2023/01/16 03:39:40;;;;;;;2.13;0.70;;;;;;;6.66;100.00;98997.59;5047174;28;20295;-75
2023/01/16 03:42:12;;;;;;;4.70;0.90;;;;;;;6.65;100.00;98993.28;5021835;28;20131;-75
2023/01/16 03:44:47;;;;;;;3.15;1.10;;;;;;;6.66;100.00;98976.38;5048108;28;20060;-74
2023/01/16 03:47:20;;;;;;;2.77;1.00;;;;;;;6.68;100.00;98978.72;5046927;28;20075;-74
2023/01/16 03:49:54;;;;;;;2.13;0.90;;;;;;;6.62;100.00;98956.41;5048337;28;20314;-74
2023/01/16 03:52:24;;;;;;;0.40;0.40;;;;;;;6.55;100.00;98955.72;5047752;28;20531;-75
2023/01/16 03:55:01;;;;;;;2.58;1.05;;;;;;;6.56;100.00;98957.28;5048919;28;20049;-75
2023/01/16 03:57:34;;;;;;;4.40;1.08;;;;;;;6.57;100.00;98953.34;5042785;28;20045;-74
2023/01/16 04:00:01;;;;;;;5.45;1.40;;;;;;;6.48;100.00;98950.34;5046111;28;20048;-75
2023/01/16 04:02:37;;;;;;;4.47;1.40;;;;;;;6.50;100.00;98940.47;5041117;28;20430;-74
2023/01/16 04:05:22;;;;;;;1.75;0.75;;;;;;;6.45;100.00;98946.41;5047614;28;20052;-77
2023/01/16 04:07:59;;;;;;;4.05;1.48;;;;;;;6.47;100.00;98935.81;5046927;28;20052;-75
2023/01/16 04:10:31;;;;;;;1.35;0.90;;;;;;;6.33;100.00;98936.00;5048199;28;20094;-76
2023/01/16 04:13:03;;;;;;;4.80;1.40;;;;;;;6.35;100.00;98936.34;5044694;28;20587;-74
2023/01/16 04:15:32;;;;;;;2.85;1.30;;;;;;;6.38;100.00;98919.03;5048356;28;20485;-74
2023/01/16 04:17:59;;;;;;;7.55;1.20;;;;;;;6.37;100.00;98908.47;5048230;28;20103;-75
2023/01/16 04:20:28;;;;;;;3.58;1.10;;;;;;;6.41;100.00;98903.72;5047740;28;20107;-74
2023/01/16 04:22:54;;;;;;;4.10;0.85;;;;;;;6.32;100.00;98886.97;5044780;28;20053;-74
2023/01/16 04:25:21;;;;;;;3.00;1.63;;;;;;;6.48;100.00;98882.41;5047965;28;20048;-75
2023/01/16 04:27:48;;;;;;;6.53;1.20;;;;;;;6.46;100.00;98884.03;5045031;28;20539;-75
2023/01/16 04:30:15;;;;;;;3.15;1.27;;;;;;;6.48;100.00;98884.41;5047627;28;20079;-77
2023/01/16 04:32:42;;;;;;;4.90;1.20;;;;;;;6.50;100.00;98874.53;5047168;28;20126;-76
2023/01/16 04:35:09;;;;;;;5.28;1.40;;;;;;;6.56;100.00;98858.38;5046834;28;20049;-74
2023/01/16 04:37:35;;;;;;;3.50;0.93;;;;;;;6.57;100.00;98848.91;5030614;28;20053;-74
2023/01/16 04:40:03;;;;;;;7.10;1.15;;;;;;;6.60;100.00;98837.09;5046606;28;20049;-73
2023/01/16 04:42:29;;;;;;;2.60;0.80;;;;;;;6.52;100.00;98824.69;5046311;28;20057;-74
2023/01/16 04:44:56;;;;;;;2.15;1.13;;;;;;;6.58;100.00;98832.03;5046888;28;20057;-72
2023/01/16 04:47:22;;;;;;;0.75;0.50;;;;;;;6.59;100.00;98825.34;5045519;28;20504;-74
2023/01/16 04:49:49;;;;;;;1.98;1.20;;;;;;;6.64;100.00;98818.59;5040634;28;20053;-74
2023/01/16 04:52:15;;;;;;;3.17;1.00;;;;;;;6.65;100.00;98807.19;5047668;28;20438;-75
2023/01/16 04:54:41;;;;;;;2.08;1.08;;;;;;;6.69;100.00;98807.13;5028294;28;20055;-76
2023/01/16 04:57:08;;;;;;;6.22;1.10;;;;;;;6.66;100.00;98794.22;5046159;28;20065;-75
2023/01/16 04:59:34;;;;;;;3.60;0.85;;;;;;;6.68;100.00;98786.38;5029106;28;20063;-76
2023/01/16 05:02:01;;;;;;;4.05;1.00;;;;;;;6.61;100.00;98779.00;5046960;28;20060;-75
2023/01/16 05:04:28;;;;;;;3.65;1.05;;;;;;;6.64;100.00;98769.13;5038000;28;20136;-75
2023/01/16 05:06:54;;;;;;;3.22;0.73;;;;;;;6.52;100.00;98761.50;5047688;28;20425;-76
2023/01/16 05:09:21;;;;;;;1.50;0.98;;;;;;;6.60;100.00;98754.69;5046382;28;20053;-74
2023/01/16 05:11:47;;;;;;;2.17;1.05;;;;;;;6.62;100.00;98757.78;5043640;28;20511;-74
2023/01/16 05:14:13;;;;;;;2.22;0.90;;;;;;;6.55;100.00;98746.94;5044499;28;20045;-75
2023/01/16 05:16:41;;;;;;;9.13;1.05;;;;;;;6.51;100.00;98741.47;5045296;28;20060;-74
2023/01/16 05:19:09;;;;;;;3.40;1.10;;;;;;;6.54;100.00;98739.84;5035537;28;20049;-75
2023/01/16 05:21:36;;;;;;;3.08;1.02;;;;;;;6.51;100.00;98730.47;5046001;28;20419;-74
2023/01/16 05:24:03;;;;;;;5.28;1.25;;;;;;;6.49;100.00;98730.16;5045959;28;20047;-75
2023/01/16 05:26:29;;;;;;;6.63;1.05;;;;;;;6.51;100.00;98713.25;5045904;28;20136;-75
2023/01/16 05:28:56;;;;;;;1.23;0.70;;;;;;;6.47;100.00;98696.03;5044811;28;20057;-75
2023/01/16 05:31:23;;;;;;;3.95;1.20;;;;;;;6.50;100.00;98698.72;5043393;28;20064;-76
2023/01/16 05:33:50;;;;;;;8.70;1.35;;;;;;;6.49;100.00;98693.66;5040986;28;20088;-76
2023/01/16 05:36:16;;;;;;;3.50;0.98;;;;;;;6.46;100.00;98678.00;5047399;28;20049;-73
2023/01/16 05:38:43;;;;;;;3.22;1.55;;;;;;;6.41;100.00;98679.25;5045826;28;20523;-74
2023/01/16 05:41:09;;;;;;;2.40;1.00;;;;;;;6.47;100.00;98685.81;5044621;28;20128;-75
2023/01/16 05:43:36;;;;;;;6.40;2.08;;;;;;;6.46;100.00;98675.25;5045092;28;20053;-74
2023/01/16 05:46:03;;;;;;;5.72;1.40;;;;;;;6.53;100.00;98672.38;5039665;28;20076;-76
2023/01/16 05:48:31;;;;;;;6.63;1.13;;;;;;;6.49;100.00;98672.44;5042957;28;20081;-74
2023/01/16 05:51:00;;;;;;;2.20;1.15;;;;;;;6.55;100.00;98664.50;5045551;28;20050;-75
2023/01/16 05:53:28;;;;;;;3.25;1.13;;;;;;;6.56;100.00;98658.59;5016348;28;20060;-74
2023/01/16 05:55:54;;;;;;;5.20;1.10;;;;;;;6.57;100.00;98654.63;5044147;28;20515;-74
2023/01/16 05:58:21;;;;;;;6.57;2.63;;;;;;;6.63;100.00;98652.97;5046221;28;20091;-75
2023/01/16 06:00:48;;;;;;;5.65;1.45;;;;;;;6.57;100.00;98637.38;5047878;28;20434;-75
2023/01/16 06:03:17;;;;;;;7.45;1.55;;;;;;;6.59;100.00;98630.28;5048637;28;20052;-75
2023/01/16 06:05:44;;;;;;;4.70;1.27;;;;;;;6.58;100.00;98612.22;5049520;28;20048;-75
2023/01/16 06:08:10;;;;;;;7.75;1.40;;;;;;;6.60;100.00;98609.06;5032465;28;20708;-75
2023/01/16 06:10:37;;;;;;;4.75;1.38;;;;;;;6.60;100.00;98603.56;5029771;28;20507;-73
2023/01/16 06:13:03;;;;;;;3.03;1.30;;;;;;;6.61;100.00;98605.13;5048667;28;20701;-73
2023/01/16 06:15:30;;;;;;;3.97;1.42;;;;;;;6.62;100.00;98598.44;5046976;28;20045;-74
2023/01/16 06:17:56;;;;;;;4.57;1.25;;;;;;;6.61;100.00;98577.66;5048190;28;20053;-73
2023/01/16 06:20:23;;;;;;;4.22;1.52;;;;;;;6.60;100.00;98589.81;5031879;28;20055;-74
2023/01/16 06:22:50;;;;;;;7.00;1.83;;;;;;;6.60;100.00;98573.34;5049164;28;20053;-75
2023/01/16 06:25:16;;;;;;;3.40;1.50;;;;;;;6.56;100.00;98567.16;5048671;28;20049;-75
2023/01/16 06:27:48;;;;;;;7.18;1.58;;;;;;;6.62;100.00;98555.22;5030227;28;20082;-75
2023/01/16 06:30:15;;;;;;;3.17;1.20;;;;;;;6.60;100.00;98540.38;5030089;28;20052;-74
2023/01/16 06:32:41;;;;;;;8.20;1.95;;;;;;;6.56;100.00;98534.97;5048687;28;20380;-75
2023/01/16 06:35:08;;;;;;;5.50;1.13;;;;;;;6.53;100.00;98540.50;5048862;28;20045;-74
2023/01/16 06:37:35;;;;;;;6.40;1.58;;;;;;;6.57;100.00;98533.75;5046825;28;20057;-74
2023/01/16 06:40:01;;;;;;;2.38;1.10;;;;;;;6.60;100.00;98523.88;5048932;28;20059;-77
2023/01/16 06:42:28;;;;;;;3.72;1.20;;;;;;;6.62;100.00;98524.25;5048417;28;20621;-75
2023/01/16 06:44:54;;;;;;;5.75;1.42;;;;;;;6.64;100.00;98519.09;5046598;28;20049;-76
2023/01/16 06:47:21;;;;;;;8.07;1.40;;;;;;;6.75;100.00;98505.94;5047420;28;20057;-72
2023/01/16 06:49:48;;;;;;;4.43;1.52;;;;;;;6.75;100.00;98495.69;5046304;28;20052;-75
2023/01/16 06:52:15;;;;;;;1.95;1.17;;;;;;;6.80;100.00;98497.16;5048052;28;20045;-76
2023/01/16 06:54:41;;;;;;;3.72;1.20;;;;;;;6.79;100.00;98488.13;5042668;28;20045;-75
2023/01/16 06:57:08;;;;;;;6.50;1.15;;;;;;;6.80;100.00;98478.72;5028072;28;20044;-76
2023/01/16 06:59:34;;;;;;;3.47;1.05;;;;;;;6.80;100.00;98480.69;5046199;28;20053;-75
2023/01/16 07:02:01;;;;;;;5.35;1.23;;;;;;;6.78;100.00;98466.59;5045598;28;21769;-74
2023/01/16 07:04:27;;;;;;;5.25;1.02;;;;;;;6.82;100.00;98461.81;5045014;28;20059;-75
2023/01/16 07:06:54;;;;;;;3.60;1.05;;;;;;;6.85;100.00;98453.47;5047655;28;20048;-77
2023/01/16 07:09:28;;;;;;;2.55;0.95;;;;;;;6.90;100.00;98438.44;5028030;28;20737;-76
2023/01/16 07:11:54;;;;;;;4.20;1.33;;;;;;;7.00;100.00;98431.94;5030335;28;20102;-75
2023/01/16 07:22:40;;;;;;;3.88;1.50;;;;;;;7.13;100.00;98399.81;5039841;28;20059;-75
2023/01/16 07:25:16;;;;;;;5.50;2.15;;;;;;;7.16;100.00;98401.72;5049290;28;20040;-75
2023/01/16 07:27:43;;;;;;;2.53;1.23;;;;;;;7.17;100.00;98395.78;5045995;28;20426;-76
2023/01/16 07:30:10;;;;;;;2.33;1.05;;;;;;;7.17;100.00;98392.25;5049184;28;20041;-76
2023/01/16 07:32:38;;;;;;;1.05;0.95;;;;;;;7.24;100.00;98392.84;5048149;28;20051;-76
2023/01/16 07:35:05;;;;;;;8.27;1.73;;;;;;;7.31;100.00;98369.88;5047716;28;20498;-75
2023/01/16 07:37:32;;;;;;;4.13;1.60;;;;;;;7.31;100.00;98364.38;5050126;28;20059;-72
2023/01/16 07:39:58;;;;;;;2.30;1.52;;;;;;;7.33;100.00;98356.50;5048378;28;20063;-74
2023/01/16 07:42:25;;;;;;;3.92;1.40;;;;;;;7.29;100.00;98361.31;5055535;28;20049;-75
2023/01/16 07:44:51;;;;;;;2.42;1.30;;;;;;;7.39;100.00;98358.28;5047540;28;20056;-77
2023/01/16 07:47:17;;;;;;;4.57;1.52;;;;;;;7.38;100.00;98354.00;5048825;28;20520;-77
2023/01/16 07:49:44;;;;;;;2.42;1.00;;;;;;;7.31;100.00;98348.66;5046052;28;20701;-75
2023/01/16 07:52:10;;;;;;;6.70;2.00;;;;;;;7.40;100.00;98343.31;5049385;28;20053;-76
2023/01/16 07:54:40;;;;;;;3.72;1.92;;;;;;;7.42;100.00;98335.41;5050418;28;20056;-75
2023/01/16 07:57:06;;;;;;;3.30;1.02;;;;;;;7.31;100.00;98323.13;5046051;28;20072;-76
2023/01/16 07:59:33;;;;;;;4.38;1.63;;;;;;;7.43;100.00;98319.69;5046619;28;20053;-76
2023/01/16 08:02:01;;;;;;;9.23;2.30;;;;;;;7.38;100.00;98309.97;5046456;28;20059;-76
2023/01/16 08:04:28;;;;;;;5.32;1.88;;;;;;;7.34;100.00;98314.03;5043764;28;20060;-75
2023/01/16 08:06:57;;;;;;;4.60;2.10;;;;;;;7.33;100.00;98287.72;5049788;28;20461;-75
2023/01/16 08:09:24;;;;;;;7.53;1.58;;;;;;;7.26;100.00;98280.44;5048082;28;20073;-75
2023/01/16 08:11:50;;;;;;;3.83;1.50;;;;;;;7.27;100.00;98287.50;5046128;28;20060;-77
2023/01/16 08:14:17;;;;;;;3.53;2.05;;;;;;;7.25;100.00;98270.63;5044629;28;20057;-78
2023/01/16 08:16:43;;;;;;;2.92;1.40;;;;;;;7.17;100.00;98257.50;5048079;28;20071;-76
2023/01/16 08:19:10;;;;;;;1.65;1.40;;;;;;;7.22;100.00;98268.75;5045399;28;20051;-77
2023/01/16 08:21:37;;;;;;;8.75;1.90;;;;;;;7.24;100.00;98247.09;5042596;28;20055;-74
2023/01/16 08:24:04;;;;;;;4.93;1.67;;;;;;;7.17;100.00;98233.53;5040278;28;20401;-75
2023/01/16 08:26:30;;;;;;;5.25;1.60;;;;;;;7.19;100.00;98225.63;5044269;28;20049;-74
2023/01/16 08:28:57;;;;;;;2.15;1.15;;;;;;;7.01;100.00;98222.56;5040649;28;20666;-74
2023/01/16 08:31:24;;;;;;;1.08;0.85;;;;;;;7.09;100.00;98209.41;5044603;28;20391;-78
2023/01/16 08:33:51;;;;;;;1.88;1.25;;;;;;;7.08;100.00;98191.38;5045080;28;20080;-75
2023/01/16 08:36:20;;;;;;;8.07;1.83;;;;;;;7.10;100.00;98194.47;5047531;28;20743;-74
2023/01/16 08:38:49;;;;;;;4.85;1.63;;;;;;;7.04;100.00;98187.94;5047934;28;20060;-75
2023/01/16 08:52:36;;;;;;;7.70;1.85;;;;;;;7.00;100.00;98151.53;5038606;28;20049;-75
2023/01/16 08:55:03;;;;;;;2.05;1.15;;;;;;;6.90;100.00;98152.59;5046475;28;20510;-77
2023/01/16 08:57:30;;;;;;;9.15;1.77;;;;;;;6.95;100.00;98141.09;5041809;28;20053;-77
2023/01/16 08:59:57;;;;;;;4.15;1.58;;;;;;;6.98;100.00;98134.69;5042388;28;20132;-77
2023/01/16 09:02:25;;;;;;;7.10;1.55;;;;;;;6.90;100.00;98136.88;5049734;28;20134;-76
2023/01/16 09:04:53;;;;;;;3.30;1.35;;;;;;;6.98;100.00;98121.72;5042919;28;20053;-74
2023/01/16 09:07:21;;;;;;;6.75;1.55;;;;;;;6.95;100.00;98128.09;5048283;28;20053;-75
2023/01/16 09:09:47;;;;;;;9.15;2.05;;;;;;;7.00;100.00;98110.31;5047516;28;20530;-75
2023/01/16 09:14:59;;;;;;;3.95;1.48;;;;;;;7.07;100.00;98099.88;5040483;28;20068;-75
2023/01/16 09:17:26;;;;;;;5.57;1.40;;;;;;;7.12;100.00;98087.59;5040597;28;20076;-78
2023/01/16 09:19:53;;;;;;;7.47;1.60;;;;;;;7.20;100.00;98089.69;5040127;28;20060;-75
2023/01/16 09:22:20;;;;;;;6.65;1.92;;;;;;;7.22;100.00;98080.97;5041914;28;20402;-75
2023/01/16 09:24:47;;;;;;;6.68;1.70;;;;;;;7.24;100.00;98078.56;5023784;28;20049;-77
2023/01/16 09:27:13;;;;;;;3.75;1.35;;;;;;;7.30;100.00;98083.06;5042408;28;20060;-75
2023/01/16 09:29:41;;;;;;;9.55;1.50;;;;;;;7.33;100.00;98081.44;5043196;28;20059;-75
2023/01/16 09:32:08;;;;;;;6.25;1.40;;;;;;;7.33;100.00;98076.69;5043627;28;20060;-76
2023/01/16 09:34:36;;;;;;;5.55;1.42;;;;;;;7.28;100.00;98068.22;5045757;28;20045;-78
2023/01/16 09:37:04;;;;;;;5.53;1.42;;;;;;;7.34;100.00;98059.00;5048627;28;20106;-78
2023/01/16 09:39:32;;;;;;;1.27;0.90;;;;;;;7.25;100.00;98069.09;5046752;28;20044;-74
2023/01/16 09:45:01;;;;;;;2.63;1.30;;;;;;;7.42;100.00;98073.31;5038672;28;20048;-77
2023/01/16 09:47:32;;;;;;;5.32;1.52;;;;;;;7.40;100.00;98054.47;5039434;28;20515;-75
2023/01/16 09:50:13;;;;;;;1.13;0.77;;;;;;;7.25;100.00;98052.59;5038834;28;20052;-76
2023/01/16 09:58:46;;;;;;;1.95;1.05;;;;;;;7.24;100.00;98029.84;5037770;28;20073;-74
2023/01/16 10:01:19;;;;;;;1.50;0.95;;;;;;;7.30;100.00;98033.56;5038316;28;20058;-76
2023/01/16 10:03:46;;;;;;;2.08;0.82;;;;;;;7.27;100.00;98028.19;5038588;28;20135;-73
2023/01/16 10:06:31;;;;;;;9.68;2.00;;;;;;;7.23;100.00;98019.28;5047082;28;20077;-76
2023/01/16 10:09:00;;;;;;;5.28;1.67;;;;;;;7.22;100.00;98015.75;5036136;28;20053;-74
2023/01/16 10:11:47;;;;;;;8.13;2.72;;;;;;;7.23;100.00;98011.03;5041588;28;20499;-75
2023/01/16 10:14:35;;;;;;;3.17;1.40;;;;;;;7.26;100.00;97999.16;5037057;28;20048;-77
2023/01/16 10:17:23;;;;;;;3.53;1.55;;;;;;;7.19;100.00;97994.63;5040344;28;20052;-74
2023/01/16 10:20:04;;;;;;;5.20;0.75;;;;;;;7.14;100.00;97995.19;5037254;28;20099;-74
2023/01/16 10:22:50;;;;;;;4.13;1.45;;;;;;;7.17;100.00;97979.78;5039163;28;20049;-75
2023/01/16 10:25:44;;;;;;;2.55;1.40;;;;;;;7.06;100.00;97996.59;5042569;28;20051;-75
2023/01/16 10:28:26;;;;;;;2.90;1.30;;;;;;;7.05;100.00;97977.81;5038874;28;20049;-75
2023/01/16 10:31:03;;;;;;;0.52;0.52;;;;;;;6.98;100.00;97970.56;5043287;28;20059;-75
2023/01/16 10:33:39;;;;;;;2.42;1.88;;;;;;;7.08;100.00;97969.47;5046493;28;20136;-75
2023/01/16 10:36:20;;;;;;;2.90;1.02;;;;;;;7.03;100.00;97969.25;5042870;28;20103;-75
2023/01/16 10:38:56;;;;;;;1.58;0.88;;;;;;;7.02;100.00;97962.22;5039455;28;20122;-76
2023/01/16 10:50:18;;;;;;;4.85;1.30;;;;;;;6.92;100.00;97955.06;5040619;28;20474;-75
2023/01/16 10:53:07;;;;;;;3.05;0.90;;;;;;;6.86;100.00;97943.06;5046850;28;20140;-76
2023/01/16 10:55:37;;;;;;;4.95;0.75;;;;;;;6.98;100.00;97928.53;5043884;28;20079;-75
2023/01/16 10:58:19;;;;;;;6.35;1.80;;;;;;;7.03;100.00;97919.75;5047541;28;20769;-76
2023/01/16 11:00:46;;;;;;;3.50;1.33;;;;;;;7.10;100.00;97908.53;5044308;28;20057;-75
2023/01/16 11:03:18;;;;;;;1.02;0.93;;;;;;;6.97;100.00;97919.53;5047367;28;20059;-76
2023/01/16 11:05:46;;;;;;;2.33;1.10;;;;;;;7.07;100.00;97903.91;5043069;28;20048;-76
2023/01/16 11:08:18;;;;;;;6.28;1.42;;;;;;;7.18;100.00;97883.13;5045456;28;20525;-75
2023/01/16 11:10:47;;;;;;;3.25;1.42;;;;;;;7.20;100.00;97885.44;5042284;28;20084;-75
2023/01/16 11:19:17;;;;;;;6.07;1.77;;;;;;;7.21;100.00;97853.97;5048240;28;20075;-75
2023/01/16 11:21:50;;;;;;;2.30;0.70;;;;;;;7.22;100.00;97888.50;5045235;28;20069;-75
2023/01/16 11:24:24;;;;;;;1.80;0.52;;;;;;;7.43;100.00;97858.31;5044761;28;20400;-75
2023/01/16 11:26:53;;;;;;;3.78;1.08;;;;;;;7.51;100.00;97845.09;5045570;28;20045;-76
2023/01/16 11:29:25;;;;;;;2.45;1.00;;;;;;;7.43;100.00;97847.31;5048432;28;20060;-76
2023/01/16 11:32:02;;;;;;;2.25;0.70;;;;;;;7.40;100.00;97842.69;5042568;28;20048;-73
2023/01/16 11:34:29;;;;;;;1.48;0.90;;;;;;;7.54;100.00;97836.72;5038590;28;20484;-74
2023/01/16 11:37:05;;;;;;;2.40;0.85;;;;;;;7.74;100.00;97841.94;5047740;28;20053;-74
2023/01/16 11:39:34;;;;;;;0.98;0.73;;;;;;;7.97;100.00;97817.47;5040667;28;20053;-75
2023/01/16 11:46:02;;;;;;;2.92;1.13;;;;;;;8.16;100.00;97812.84;5042677;28;20059;-75
2023/01/16 11:47:51;;;;;;;4.63;0.82;;;;;;;8.37;100.00;97803.78;5047146;28;20063;-75
2023/01/16 11:50:21;;;;;;;2.53;1.33;;;;;;;8.67;100.00;97810.53;5043644;28;20052;-75
2023/01/16 11:52:47;;;;;;;1.75;0.90;;;;;;;8.83;100.00;97799.22;5045334;28;20554;-75
2023/01/16 11:55:15;;;;;;;1.02;0.77;;;;;;;8.75;100.00;97787.75;5046207;28;20227;-75
2023/01/16 11:58:08;;;;;;;4.30;0.85;;;;;;;8.54;100.00;97790.56;5045177;28;20385;-76
2023/01/16 12:00:55;;;;;;;2.35;0.82;;;;;;;8.41;100.00;97776.91;5039337;28;20064;-75
2023/01/16 12:03:45;;;;;;;2.38;0.60;;;;;;;8.29;100.00;97774.22;5051454;28;20058;-75
2023/01/16 12:06:31;;;;;;;1.65;0.80;;;;;;;8.27;100.00;97779.44;5046662;28;20492;-75
2023/01/16 12:09:25;;;;;;;1.27;0.93;;;;;;;8.26;100.00;97753.88;5047279;28;20068;-75
2023/01/16 12:15:22;;;;;;;3.95;1.10;;;;;;;8.17;100.00;97744.78;5045706;28;20140;-76
2023/01/16 12:17:49;;;;;;;2.33;0.75;;;;;;;8.09;100.00;97724.25;5046486;28;20118;-75
2023/01/16 12:20:15;;;;;;;4.47;0.82;;;;;;;8.13;100.00;97724.88;5044734;28;20051;-77
2023/01/16 12:23:01;;;;;;;1.83;0.70;;;;;;;7.97;100.00;97721.13;5046650;28;20048;-76
2023/01/16 12:25:33;;;;;;;1.65;0.80;;;;;;;7.90;100.00;97718.63;5020159;28;20099;-76
2023/01/16 12:28:16;;;;;;;5.28;1.45;;;;;;;7.99;100.00;97710.44;5047017;28;20059;-76
2023/01/16 12:31:07;;;;;;;1.02;0.65;;;;;;;7.81;100.00;97706.81;5039733;28;20053;-76
2023/01/16 12:33:42;;;;;;;1.85;1.10;;;;;;;8.03;100.00;97694.53;5045871;28;20076;-76
2023/01/16 12:36:39;;;;;;;0.88;0.68;;;;;;;8.09;100.00;97694.72;5046562;28;20048;-76
2023/01/16 12:39:28;;;;;;;1.65;0.95;;;;;;;9.97;100.00;97681.50;5043203;28;20045;-75
2023/01/16 12:45:29;;;;;;;0.98;0.80;;;;;;;9.36;100.00;97677.19;5046259;28;20049;-77
2023/01/16 12:48:18;;;;;;;3.03;0.98;;;;;;;9.14;100.00;97660.03;5034156;28;20096;-75
2023/01/16 12:50:50;;;;;;;1.67;1.05;;;;;;;9.00;100.00;97652.38;5041441;28;20048;-75
2023/01/16 12:53:33;;;;;;;1.17;0.77;;;;;;;9.32;100.00;97648.97;5046019;28;20053;-76
2023/01/16 12:56:27;;;;;;;2.10;0.98;;;;;;;9.30;100.00;97637.66;5002261;28;20050;-76